Wednesday, November 22, 2017, 4:30 PM GMT
Back to Local

CWVQ, Ste Anne De Bell 1

Location: , , Canada Lat: 45.433
Local Time: 4:30 PM GMT (16:30 GMT) Lon: -73.933
Time Zone: GMT Elev: 127 ft

Show me the last for .
Show Coded

Time T Td Feel RH Dir Speed Gust Alt SLP Vis Weather Sky Remarks
2017-11-22 16:00 36 34 29 93 260° 8 - - 29.97 0 None
2017-11-22 15:00 35 33 27 95 260° 9 - - 29.98 0 None
2017-11-22 14:00 34 33 27 97 240° 8 - - 29.98 0 1-hr Precip Total: 0.01"
2017-11-22 13:00 34 33 28 96 240° 7 - - 29.97 0 1-hr Precip Total: 0.01"
2017-11-22 12:00 35 34 30 95 280° 6 - - 29.94 0 1-hr Precip Total: 0.03"
2017-11-22 11:00 37 35 31 95 280° 7 - - 29.92 0 1-hr Precip Total: 0.02"
2017-11-22 10:00 38 37 32 94 290° 8 - - 29.88 0 None
2017-11-22 09:00 39 38 37 93 270° 3 - - 29.86 0 1-hr Precip Total: 0.01"
2017-11-22 08:00 40 38 38 91 260° 3 - - 29.86 0 None
2017-11-22 07:00 41 36 - 81 250° 2 - - 29.85 0 None
2017-11-22 06:00 44 31 - 60 200° 2 - - 29.83 0 None
2017-11-22 05:00 45 31 44 57 200° 3 - - 29.83 0 None
2017-11-22 04:00 45 30 44 56 210° 3 - - 29.82 0 None
2017-11-22 03:00 44 30 43 55 160° 3 - - 29.81 0 None
2017-11-22 02:00 45 31 43 58 190° 5 - - 29.80 0 None
2017-11-22 01:00 41 29 39 60 180° 3 - - 29.79 0 None
2017-11-22 00:00 38 29 - 69 190° 2 - - 29.79 0 None
2017-11-21 23:00 38 31 - 73 180° 2 - - 29.77 0 None
2017-11-21 22:00 38 32 - 77 220° 2 - - 29.75 0 None
2017-11-21 21:00 43 33 - 69 200° 1 - - 29.73 0 None
2017-11-21 20:00 46 33 43 61 150° 6 - - 29.71 0 None
2017-11-21 19:00 49 28 47 43 200° 7 - - 29.71 0 None
2017-11-21 18:00 45 32 44 59 140° 3 - - 29.72 0 None
2017-11-21 17:00 46 31 43 56 140° 5 - - 29.73 0 None

Support USWX by starting your Amazon purchase here.